Terminal Aerodrome Forecast
Issued by NWS Springfield, MO

Home | Current Version | Previous Version | Text Only | Print | Product List | Glossary On
Versions: 1 2 3 4 5 6 7 8 9 10 11 12 13 14 15 16 17 18 19 20 21 22 23 24
000
FTUS43 KSGF 022300
TAFSGF
TAF
KSGF 022320Z 0300/0324 01007KT P6SM BKN020 OVC040
     FM030600 02005KT P6SM SCT009 OVC020
      TEMPO 0309/0313 4SM BR OVC007
     FM031500 01007KT P6SM BKN025
     FM032000 01007KT P6SM BKN040=

USA.gov is the U.S. government's official web portal to all federal, state and local government web resources and services.